sensor_id;sensor_type;location;lat;lon;timestamp;temperature;humidity
40374;DHT22;26079;45.958;12.492;2022-09-09T00:04:35;21.10;98.50
40374;DHT22;26079;45.958;12.492;2022-09-09T00:09:51;21.10;98.90
40374;DHT22;26079;45.958;12.492;2022-09-09T00:12:48;21.00;99.20
40374;DHT22;26079;45.958;12.492;2022-09-09T00:18:38;20.70;99.70
40374;DHT22;26079;45.958;12.492;2022-09-09T00:21:07;20.50;99.80
40374;DHT22;26079;45.958;12.492;2022-09-09T00:23:39;20.30;99.80
40374;DHT22;26079;45.958;12.492;2022-09-09T00:31:31;20.10;99.90
40374;DHT22;26079;45.958;12.492;2022-09-09T00:34:12;20.00;99.90
40374;DHT22;26079;45.958;12.492;2022-09-09T00:36:39;20.00;99.90
40374;DHT22;26079;45.958;12.492;2022-09-09T00:39:05;20.00;99.90
40374;DHT22;26079;45.958;12.492;2022-09-09T00:44:34;20.00;99.90
40374;DHT22;26079;45.958;12.492;2022-09-09T00:52:31;19.80;99.90
40374;DHT22;26079;45.958;12.492;2022-09-09T00:57:48;19.80;99.90
40374;DHT22;26079;45.958;12.492;2022-09-09T01:00:29;19.90;99.90
40374;DHT22;26079;45.958;12.492;2022-09-09T01:08:34;20.00;99.90
40374;DHT22;26079;45.958;12.492;2022-09-09T01:11:01;20.00;99.80
40374;DHT22;26079;45.958;12.492;2022-09-09T01:13:35;20.00;99.80
40374;DHT22;26079;45.958;12.492;2022-09-09T01:16:08;20.00;99.70
40374;DHT22;26079;45.958;12.492;2022-09-09T01:18:40;20.00;99.90
40374;DHT22;26079;45.958;12.492;2022-09-09T01:21:40;20.10;99.50
40374;DHT22;26079;45.958;12.492;2022-09-09T01:24:34;20.10;99.90
40374;DHT22;26079;45.958;12.492;2022-09-09T01:27:03;20.20;99.30
40374;DHT22;26079;45.958;12.492;2022-09-09T01:29:30;20.30;99.30
40374;DHT22;26079;45.958;12.492;2022-09-09T01:32:39;20.30;99.10
40374;DHT22;26079;45.958;12.492;2022-09-09T01:35:15;20.20;99.30
40374;DHT22;26079;45.958;12.492;2022-09-09T01:37:44;20.30;99.10
40374;DHT22;26079;45.958;12.492;2022-09-09T01:40:10;20.30;99.20
40374;DHT22;26079;45.958;12.492;2022-09-09T01:42:36;20.30;99.50
40374;DHT22;26079;45.958;12.492;2022-09-09T01:45:02;20.30;99.20
40374;DHT22;26079;45.958;12.492;2022-09-09T01:47:29;20.30;99.50
40374;DHT22;26079;45.958;12.492;2022-09-09T01:49:54;20.30;99.90
40374;DHT22;26079;45.958;12.492;2022-09-09T01:52:20;20.30;99.90
40374;DHT22;26079;45.958;12.492;2022-09-09T01:54:46;20.20;99.90
40374;DHT22;26079;45.958;12.492;2022-09-09T01:57:26;20.20;99.90
40374;DHT22;26079;45.958;12.492;2022-09-09T02:02:56;20.10;99.90
40374;DHT22;26079;45.958;12.492;2022-09-09T02:05:38;20.10;99.90
40374;DHT22;26079;45.958;12.492;2022-09-09T02:08:17;20.20;99.90
40374;DHT22;26079;45.958;12.492;2022-09-09T02:11:05;20.20;99.80
40374;DHT22;26079;45.958;12.492;2022-09-09T02:13:34;20.20;99.70
40374;DHT22;26079;45.958;12.492;2022-09-09T02:16:08;20.20;99.50
40374;DHT22;26079;45.958;12.492;2022-09-09T02:18:44;20.30;99.80
40374;DHT22;26079;45.958;12.492;2022-09-09T02:21:12;20.30;99.80
40374;DHT22;26079;45.958;12.492;2022-09-09T02:23:41;20.30;99.90
40374;DHT22;26079;45.958;12.492;2022-09-09T02:26:10;20.20;99.70
40374;DHT22;26079;45.958;12.492;2022-09-09T02:28:39;20.20;99.70
40374;DHT22;26079;45.958;12.492;2022-09-09T02:31:07;20.20;99.80
40374;DHT22;26079;45.958;12.492;2022-09-09T02:33:45;20.20;99.90
40374;DHT22;26079;45.958;12.492;2022-09-09T02:36:15;20.10;99.90
40374;DHT22;26079;45.958;12.492;2022-09-09T02:38:46;20.10;99.90
40374;DHT22;26079;45.958;12.492;2022-09-09T02:41:25;20.10;99.90
40374;DHT22;26079;45.958;12.492;2022-09-09T02:43:53;20.10;99.90
40374;DHT22;26079;45.958;12.492;2022-09-09T02:51:44;20.10;99.90
40374;DHT22;26079;45.958;12.492;2022-09-09T02:54:29;20.10;99.90
40374;DHT22;26079;45.958;12.492;2022-09-09T02:57:06;20.10;99.90
40374;DHT22;26079;45.958;12.492;2022-09-09T02:59:33;20.20;99.50
40374;DHT22;26079;45.958;12.492;2022-09-09T03:01:59;20.30;99.60
40374;DHT22;26079;45.958;12.492;2022-09-09T03:04:24;20.30;99.80
40374;DHT22;26079;45.958;12.492;2022-09-09T03:06:50;20.40;99.50
40374;DHT22;26079;45.958;12.492;2022-09-09T03:09:16;20.40;99.40
40374;DHT22;26079;45.958;12.492;2022-09-09T03:11:42;20.40;99.00
40374;DHT22;26079;45.958;12.492;2022-09-09T03:14:08;20.40;98.80
40374;DHT22;26079;45.958;12.492;2022-09-09T03:16:34;20.40;99.40
40374;DHT22;26079;45.958;12.492;2022-09-09T03:19:00;20.40;99.30
40374;DHT22;26079;45.958;12.492;2022-09-09T03:21:26;20.40;99.50
40374;DHT22;26079;45.958;12.492;2022-09-09T03:23:52;20.40;99.60
40374;DHT22;26079;45.958;12.492;2022-09-09T03:26:17;20.40;99.90
40374;DHT22;26079;45.958;12.492;2022-09-09T03:28:43;20.40;99.90
40374;DHT22;26079;45.958;12.492;2022-09-09T03:31:10;20.30;99.90
40374;DHT22;26079;45.958;12.492;2022-09-09T03:33:37;20.30;99.90
40374;DHT22;26079;45.958;12.492;2022-09-09T03:36:04;20.30;99.90
40374;DHT22;26079;45.958;12.492;2022-09-09T03:38:29;20.20;99.90
40374;DHT22;26079;45.958;12.492;2022-09-09T03:40:57;20.20;99.90
40374;DHT22;26079;45.958;12.492;2022-09-09T03:43:24;20.20;99.90
40374;DHT22;26079;45.958;12.492;2022-09-09T03:45:51;20.20;99.90
40374;DHT22;26079;45.958;12.492;2022-09-09T03:48:18;20.20;99.90
40374;DHT22;26079;45.958;12.492;2022-09-09T03:50:48;20.20;99.90
40374;DHT22;26079;45.958;12.492;2022-09-09T03:53:15;20.10;99.90
40374;DHT22;26079;45.958;12.492;2022-09-09T03:55:49;20.10;99.90
40374;DHT22;26079;45.958;12.492;2022-09-09T03:58:16;20.10;99.90
40374;DHT22;26079;45.958;12.492;2022-09-09T04:00:52;20.10;99.90
40374;DHT22;26079;45.958;12.492;2022-09-09T04:03:18;20.10;99.90
40374;DHT22;26079;45.958;12.492;2022-09-09T04:05:44;20.10;99.90
40374;DHT22;26079;45.958;12.492;2022-09-09T04:08:10;20.00;99.90
40374;DHT22;26079;45.958;12.492;2022-09-09T04:10:37;20.00;99.90
40374;DHT22;26079;45.958;12.492;2022-09-09T04:13:04;20.00;99.90
40374;DHT22;26079;45.958;12.492;2022-09-09T04:15:32;20.00;99.90
40374;DHT22;26079;45.958;12.492;2022-09-09T04:18:01;20.00;99.90
40374;DHT22;26079;45.958;12.492;2022-09-09T04:20:26;20.00;99.90
40374;DHT22;26079;45.958;12.492;2022-09-09T04:22:52;19.90;99.90
40374;DHT22;26079;45.958;12.492;2022-09-09T04:25:17;19.90;99.90
40374;DHT22;26079;45.958;12.492;2022-09-09T04:27:43;19.90;99.90
40374;DHT22;26079;45.958;12.492;2022-09-09T04:30:09;19.80;99.90
40374;DHT22;26079;45.958;12.492;2022-09-09T04:32:35;19.80;99.90
40374;DHT22;26079;45.958;12.492;2022-09-09T04:35:02;19.80;99.90
40374;DHT22;26079;45.958;12.492;2022-09-09T04:37:28;19.80;99.90
40374;DHT22;26079;45.958;12.492;2022-09-09T04:39:53;19.70;99.90
40374;DHT22;26079;45.958;12.492;2022-09-09T04:42:19;19.70;99.90
40374;DHT22;26079;45.958;12.492;2022-09-09T04:44:45;19.80;99.90
40374;DHT22;26079;45.958;12.492;2022-09-09T04:47:11;19.80;99.90
40374;DHT22;26079;45.958;12.492;2022-09-09T04:49:37;19.80;99.90
40374;DHT22;26079;45.958;12.492;2022-09-09T04:52:03;19.80;99.90
40374;DHT22;26079;45.958;12.492;2022-09-09T04:54:29;19.80;99.90
40374;DHT22;26079;45.958;12.492;2022-09-09T04:56:55;19.80;99.90
40374;DHT22;26079;45.958;12.492;2022-09-09T04:59:21;19.80;99.90
40374;DHT22;26079;45.958;12.492;2022-09-09T05:01:48;19.90;99.90
40374;DHT22;26079;45.958;12.492;2022-09-09T05:04:15;19.90;99.90
40374;DHT22;26079;45.958;12.492;2022-09-09T05:06:41;19.90;99.90
40374;DHT22;26079;45.958;12.492;2022-09-09T05:09:08;19.90;99.90
40374;DHT22;26079;45.958;12.492;2022-09-09T05:11:34;19.90;99.90
40374;DHT22;26079;45.958;12.492;2022-09-09T05:14:02;19.90;99.90
40374;DHT22;26079;45.958;12.492;2022-09-09T05:16:28;19.90;99.90
40374;DHT22;26079;45.958;12.492;2022-09-09T05:18:55;20.00;99.90
40374;DHT22;26079;45.958;12.492;2022-09-09T05:21:23;20.10;99.90
40374;DHT22;26079;45.958;12.492;2022-09-09T05:23:50;20.20;99.90
40374;DHT22;26079;45.958;12.492;2022-09-09T05:26:18;20.30;99.90
40374;DHT22;26079;45.958;12.492;2022-09-09T05:28:45;20.30;99.90
40374;DHT22;26079;45.958;12.492;2022-09-09T05:31:11;20.30;99.90
40374;DHT22;26079;45.958;12.492;2022-09-09T05:33:39;20.40;99.90
40374;DHT22;26079;45.958;12.492;2022-09-09T05:36:13;20.40;99.90
40374;DHT22;26079;45.958;12.492;2022-09-09T05:38:39;20.40;99.90
40374;DHT22;26079;45.958;12.492;2022-09-09T05:41:06;20.50;99.90
40374;DHT22;26079;45.958;12.492;2022-09-09T05:43:33;20.50;99.90
40374;DHT22;26079;45.958;12.492;2022-09-09T05:46:09;20.50;99.90
40374;DHT22;26079;45.958;12.492;2022-09-09T05:48:40;20.50;99.90
40374;DHT22;26079;45.958;12.492;2022-09-09T05:51:09;20.50;99.90
40374;DHT22;26079;45.958;12.492;2022-09-09T05:53:37;20.50;99.90
40374;DHT22;26079;45.958;12.492;2022-09-09T05:56:18;20.50;99.90
40374;DHT22;26079;45.958;12.492;2022-09-09T05:58:44;20.50;99.80
40374;DHT22;26079;45.958;12.492;2022-09-09T06:01:22;20.50;99.90
40374;DHT22;26079;45.958;12.492;2022-09-09T06:03:49;20.50;99.70
40374;DHT22;26079;45.958;12.492;2022-09-09T06:06:20;20.60;99.90
40374;DHT22;26079;45.958;12.492;2022-09-09T06:08:47;20.60;99.60
40374;DHT22;26079;45.958;12.492;2022-09-09T06:11:16;20.70;99.40
40374;DHT22;26079;45.958;12.492;2022-09-09T06:13:42;20.70;99.30
40374;DHT22;26079;45.958;12.492;2022-09-09T06:16:13;20.80;98.80
40374;DHT22;26079;45.958;12.492;2022-09-09T06:18:40;20.90;98.60
40374;DHT22;26079;45.958;12.492;2022-09-09T06:21:11;21.00;98.40
40374;DHT22;26079;45.958;12.492;2022-09-09T06:23:40;21.00;98.00
40374;DHT22;26079;45.958;12.492;2022-09-09T06:26:18;21.20;98.10
40374;DHT22;26079;45.958;12.492;2022-09-09T06:28:45;21.30;98.00
40374;DHT22;26079;45.958;12.492;2022-09-09T06:31:12;21.50;97.30
40374;DHT22;26079;45.958;12.492;2022-09-09T06:33:42;21.60;96.70
40374;DHT22;26079;45.958;12.492;2022-09-09T06:36:13;21.70;96.70
40374;DHT22;26079;45.958;12.492;2022-09-09T06:38:40;21.70;96.40
40374;DHT22;26079;45.958;12.492;2022-09-09T06:41:07;21.80;95.80
40374;DHT22;26079;45.958;12.492;2022-09-09T06:43:33;21.90;94.50
40374;DHT22;26079;45.958;12.492;2022-09-09T06:46:02;21.90;93.00
40374;DHT22;26079;45.958;12.492;2022-09-09T06:48:28;22.00;91.90
40374;DHT22;26079;45.958;12.492;2022-09-09T06:53:31;22.20;91.00
40374;DHT22;26079;45.958;12.492;2022-09-09T06:56:13;22.30;91.60
40374;DHT22;26079;45.958;12.492;2022-09-09T06:58:43;22.40;91.10
40374;DHT22;26079;45.958;12.492;2022-09-09T07:01:14;22.50;90.60
40374;DHT22;26079;45.958;12.492;2022-09-09T07:03:40;22.60;89.90
40374;DHT22;26079;45.958;12.492;2022-09-09T07:06:08;22.70;89.60
40374;DHT22;26079;45.958;12.492;2022-09-09T07:08:34;22.90;88.90
40374;DHT22;26079;45.958;12.492;2022-09-09T07:11:04;23.10;89.30
40374;DHT22;26079;45.958;12.492;2022-09-09T07:13:30;23.20;87.90
40374;DHT22;26079;45.958;12.492;2022-09-09T07:16:10;23.20;88.90
40374;DHT22;26079;45.958;12.492;2022-09-09T07:18:36;23.10;89.00
40374;DHT22;26079;45.958;12.492;2022-09-09T07:21:03;23.10;89.60
40374;DHT22;26079;45.958;12.492;2022-09-09T07:23:30;23.10;89.90
40374;DHT22;26079;45.958;12.492;2022-09-09T07:25:56;23.10;90.40
40374;DHT22;26079;45.958;12.492;2022-09-09T07:28:23;23.10;89.90
40374;DHT22;26079;45.958;12.492;2022-09-09T07:30:54;23.20;90.00
40374;DHT22;26079;45.958;12.492;2022-09-09T07:33:20;23.40;90.20
40374;DHT22;26079;45.958;12.492;2022-09-09T07:35:45;23.70;88.90
40374;DHT22;26079;45.958;12.492;2022-09-09T07:38:11;23.90;87.70
40374;DHT22;26079;45.958;12.492;2022-09-09T07:40:37;24.30;86.20
40374;DHT22;26079;45.958;12.492;2022-09-09T07:43:03;24.20;83.20
40374;DHT22;26079;45.958;12.492;2022-09-09T07:45:29;24.20;83.40
40374;DHT22;26079;45.958;12.492;2022-09-09T07:47:58;24.20;84.90
40374;DHT22;26079;45.958;12.492;2022-09-09T07:50:23;24.20;85.10
40374;DHT22;26079;45.958;12.492;2022-09-09T07:52:51;24.20;84.90
40374;DHT22;26079;45.958;12.492;2022-09-09T07:55:17;24.20;84.30
40374;DHT22;26079;45.958;12.492;2022-09-09T07:57:42;24.00;84.60
40374;DHT22;26079;45.958;12.492;2022-09-09T08:00:09;24.00;84.70
40374;DHT22;26079;45.958;12.492;2022-09-09T08:02:35;24.00;83.30
40374;DHT22;26079;45.958;12.492;2022-09-09T08:05:01;23.70;84.10
40374;DHT22;26079;45.958;12.492;2022-09-09T08:07:30;23.60;84.70
40374;DHT22;26079;45.958;12.492;2022-09-09T08:10:21;23.60;84.80
40374;DHT22;26079;45.958;12.492;2022-09-09T08:12:50;23.60;84.40
40374;DHT22;26079;45.958;12.492;2022-09-09T08:15:17;23.40;85.10
40374;DHT22;26079;45.958;12.492;2022-09-09T08:17:43;23.20;85.60
40374;DHT22;26079;45.958;12.492;2022-09-09T08:20:09;23.20;85.20
40374;DHT22;26079;45.958;12.492;2022-09-09T08:22:36;23.30;85.40
40374;DHT22;26079;45.958;12.492;2022-09-09T08:25:03;23.50;84.80
40374;DHT22;26079;45.958;12.492;2022-09-09T08:27:31;23.40;85.10
40374;DHT22;26079;45.958;12.492;2022-09-09T08:29:58;23.50;84.30
40374;DHT22;26079;45.958;12.492;2022-09-09T08:32:24;23.50;84.50
40374;DHT22;26079;45.958;12.492;2022-09-09T08:34:49;23.50;84.40
40374;DHT22;26079;45.958;12.492;2022-09-09T08:37:16;23.70;84.30
40374;DHT22;26079;45.958;12.492;2022-09-09T08:39:44;23.80;83.70
40374;DHT22;26079;45.958;12.492;2022-09-09T08:50:05;24.10;82.70
40374;DHT22;26079;45.958;12.492;2022-09-09T08:55:52;24.10;81.60
40374;DHT22;26079;45.958;12.492;2022-09-09T08:58:28;24.10;82.80
40374;DHT22;26079;45.958;12.492;2022-09-09T09:07:43;23.70;82.30
40374;DHT22;26079;45.958;12.492;2022-09-09T09:13:02;24.00;82.70
40374;DHT22;26079;45.958;12.492;2022-09-09T09:15:37;24.00;80.50
40374;DHT22;26079;45.958;12.492;2022-09-09T09:18:12;24.00;81.20
40374;DHT22;26079;45.958;12.492;2022-09-09T09:21:36;24.20;81.50
40374;DHT22;26079;45.958;12.492;2022-09-09T09:23:59;24.70;81.20
40374;DHT22;26079;45.958;12.492;2022-09-09T09:26:33;24.70;79.40
40374;DHT22;26079;45.958;12.492;2022-09-09T09:29:14;24.50;80.00
40374;DHT22;26079;45.958;12.492;2022-09-09T09:32:01;24.40;81.50
40374;DHT22;26079;45.958;12.492;2022-09-09T09:34:28;24.40;80.70
40374;DHT22;26079;45.958;12.492;2022-09-09T09:36:58;24.40;80.70
40374;DHT22;26079;45.958;12.492;2022-09-09T09:39:45;24.60;81.00
40374;DHT22;26079;45.958;12.492;2022-09-09T09:42:19;24.70;80.70
40374;DHT22;26079;45.958;12.492;2022-09-09T09:44:45;24.60;79.60
40374;DHT22;26079;45.958;12.492;2022-09-09T09:47:19;24.60;79.60
40374;DHT22;26079;45.958;12.492;2022-09-09T09:50:18;24.60;81.00
40374;DHT22;26079;45.958;12.492;2022-09-09T09:52:55;24.60;79.60
40374;DHT22;26079;45.958;12.492;2022-09-09T09:55:28;24.50;80.30
40374;DHT22;26079;45.958;12.492;2022-09-09T09:58:16;24.60;78.90
40374;DHT22;26079;45.958;12.492;2022-09-09T10:04:39;24.70;79.80
40374;DHT22;26079;45.958;12.492;2022-09-09T10:07:21;24.60;80.20
40374;DHT22;26079;45.958;12.492;2022-09-09T10:09:57;24.80;80.80
40374;DHT22;26079;45.958;12.492;2022-09-09T10:12:52;25.00;78.00
40374;DHT22;26079;45.958;12.492;2022-09-09T10:29:56;25.00;78.70
40374;DHT22;26079;45.958;12.492;2022-09-09T10:35:30;24.60;80.30
40374;DHT22;26079;45.958;12.492;2022-09-09T10:38:12;24.90;79.80
40374;DHT22;26079;45.958;12.492;2022-09-09T10:54:34;25.60;77.10
40374;DHT22;26079;45.958;12.492;2022-09-09T11:02:43;25.40;77.00
40374;DHT22;26079;45.958;12.492;2022-09-09T11:05:20;25.50;77.30
40374;DHT22;26079;45.958;12.492;2022-09-09T11:14:02;25.50;78.40
40374;DHT22;26079;45.958;12.492;2022-09-09T11:16:53;25.30;79.10
40374;DHT22;26079;45.958;12.492;2022-09-09T11:21:53;25.20;79.90
40374;DHT22;26079;45.958;12.492;2022-09-09T11:24:28;25.30;77.80
40374;DHT22;26079;45.958;12.492;2022-09-09T11:40:59;25.50;77.70
40374;DHT22;26079;45.958;12.492;2022-09-09T11:43:45;25.50;77.70
40374;DHT22;26079;45.958;12.492;2022-09-09T11:46:22;25.50;77.80
40374;DHT22;26079;45.958;12.492;2022-09-09T11:49:04;25.50;77.60
40374;DHT22;26079;45.958;12.492;2022-09-09T11:51:34;25.60;77.30
40374;DHT22;26079;45.958;12.492;2022-09-09T11:54:24;25.60;76.90
40374;DHT22;26079;45.958;12.492;2022-09-09T11:56:48;25.30;77.00
40374;DHT22;26079;45.958;12.492;2022-09-09T11:59:23;25.20;77.90
40374;DHT22;26079;45.958;12.492;2022-09-09T12:04:41;25.60;76.80
40374;DHT22;26079;45.958;12.492;2022-09-09T12:17:43;25.90;75.30
40374;DHT22;26079;45.958;12.492;2022-09-09T12:20:38;25.90;76.30
40374;DHT22;26079;45.958;12.492;2022-09-09T12:23:39;25.80;74.00
40374;DHT22;26079;45.958;12.492;2022-09-09T12:26:43;25.60;74.90
40374;DHT22;26079;45.958;12.492;2022-09-09T12:37:34;26.00;75.10
40374;DHT22;26079;45.958;12.492;2022-09-09T12:40:23;26.10;74.10
40374;DHT22;26079;45.958;12.492;2022-09-09T12:42:49;25.90;74.00
40374;DHT22;26079;45.958;12.492;2022-09-09T12:45:22;26.10;74.40
40374;DHT22;26079;45.958;12.492;2022-09-09T12:48:01;26.10;73.70
40374;DHT22;26079;45.958;12.492;2022-09-09T12:50:34;26.30;73.60
40374;DHT22;26079;45.958;12.492;2022-09-09T12:53:12;26.10;72.60
40374;DHT22;26079;45.958;12.492;2022-09-09T12:55:50;25.90;74.30
40374;DHT22;26079;45.958;12.492;2022-09-09T12:58:18;25.80;74.10
40374;DHT22;26079;45.958;12.492;2022-09-09T13:01:04;25.70;73.30
40374;DHT22;26079;45.958;12.492;2022-09-09T13:03:32;25.60;75.50
40374;DHT22;26079;45.958;12.492;2022-09-09T13:06:10;25.80;74.60
40374;DHT22;26079;45.958;12.492;2022-09-09T13:08:37;25.80;73.70
40374;DHT22;26079;45.958;12.492;2022-09-09T13:11:07;25.60;73.80
40374;DHT22;26079;45.958;12.492;2022-09-09T13:13:36;25.60;74.40
40374;DHT22;26079;45.958;12.492;2022-09-09T13:16:04;25.60;74.40
40374;DHT22;26079;45.958;12.492;2022-09-09T13:18:34;25.60;75.30
40374;DHT22;26079;45.958;12.492;2022-09-09T13:21:01;25.60;74.90
40374;DHT22;26079;45.958;12.492;2022-09-09T13:23:32;25.50;75.10
40374;DHT22;26079;45.958;12.492;2022-09-09T13:26:00;25.50;75.80
40374;DHT22;26079;45.958;12.492;2022-09-09T13:28:30;25.50;76.20
40374;DHT22;26079;45.958;12.492;2022-09-09T13:31:29;25.30;76.30
40374;DHT22;26079;45.958;12.492;2022-09-09T13:33:55;25.20;75.50
40374;DHT22;26079;45.958;12.492;2022-09-09T13:36:32;25.10;75.80
40374;DHT22;26079;45.958;12.492;2022-09-09T13:39:13;25.10;75.20
40374;DHT22;26079;45.958;12.492;2022-09-09T13:41:46;25.10;75.80
40374;DHT22;26079;45.958;12.492;2022-09-09T13:44:25;25.10;74.90
40374;DHT22;26079;45.958;12.492;2022-09-09T13:47:15;25.00;75.40
40374;DHT22;26079;45.958;12.492;2022-09-09T13:49:42;24.90;76.10
40374;DHT22;26079;45.958;12.492;2022-09-09T13:52:14;24.90;75.70
40374;DHT22;26079;45.958;12.492;2022-09-09T13:54:41;24.90;76.60
40374;DHT22;26079;45.958;12.492;2022-09-09T13:57:17;24.90;75.90
40374;DHT22;26079;45.958;12.492;2022-09-09T13:59:44;24.90;75.60
40374;DHT22;26079;45.958;12.492;2022-09-09T14:02:10;24.90;75.60
40374;DHT22;26079;45.958;12.492;2022-09-09T14:04:35;24.90;76.50
40374;DHT22;26079;45.958;12.492;2022-09-09T14:07:02;24.80;77.60
40374;DHT22;26079;45.958;12.492;2022-09-09T14:09:28;24.70;78.50
40374;DHT22;26079;45.958;12.492;2022-09-09T14:11:54;24.60;77.10
40374;DHT22;26079;45.958;12.492;2022-09-09T14:14:20;24.50;79.00
40374;DHT22;26079;45.958;12.492;2022-09-09T14:16:46;24.50;80.10
40374;DHT22;26079;45.958;12.492;2022-09-09T14:19:12;24.70;80.40
40374;DHT22;26079;45.958;12.492;2022-09-09T14:21:38;24.70;79.10
40374;DHT22;26079;45.958;12.492;2022-09-09T14:24:04;24.70;79.20
40374;DHT22;26079;45.958;12.492;2022-09-09T14:26:30;24.70;78.90
40374;DHT22;26079;45.958;12.492;2022-09-09T14:28:56;24.70;78.60
40374;DHT22;26079;45.958;12.492;2022-09-09T14:31:23;24.50;80.00
40374;DHT22;26079;45.958;12.492;2022-09-09T14:33:48;24.50;81.80
40374;DHT22;26079;45.958;12.492;2022-09-09T14:36:14;24.40;80.50
40374;DHT22;26079;45.958;12.492;2022-09-09T14:38:40;24.50;81.20
40374;DHT22;26079;45.958;12.492;2022-09-09T14:41:10;24.50;80.60
40374;DHT22;26079;45.958;12.492;2022-09-09T14:43:38;24.50;80.30
40374;DHT22;26079;45.958;12.492;2022-09-09T14:46:12;24.50;81.30
40374;DHT22;26079;45.958;12.492;2022-09-09T14:48:38;24.50;80.60
40374;DHT22;26079;45.958;12.492;2022-09-09T14:51:12;24.50;80.60
40374;DHT22;26079;45.958;12.492;2022-09-09T14:53:41;24.60;79.80
40374;DHT22;26079;45.958;12.492;2022-09-09T14:56:26;24.70;79.20
40374;DHT22;26079;45.958;12.492;2022-09-09T14:59:20;24.70;79.10
40374;DHT22;26079;45.958;12.492;2022-09-09T15:01:45;24.70;79.60
40374;DHT22;26079;45.958;12.492;2022-09-09T15:04:12;24.70;80.00
40374;DHT22;26079;45.958;12.492;2022-09-09T15:06:43;24.80;81.30
40374;DHT22;26079;45.958;12.492;2022-09-09T15:09:20;24.70;81.80
40374;DHT22;26079;45.958;12.492;2022-09-09T15:11:46;24.60;82.50
40374;DHT22;26079;45.958;12.492;2022-09-09T15:14:11;24.60;82.50
40374;DHT22;26079;45.958;12.492;2022-09-09T15:16:38;24.50;84.10
40374;DHT22;26079;45.958;12.492;2022-09-09T15:19:07;24.60;83.50
40374;DHT22;26079;45.958;12.492;2022-09-09T15:21:40;24.50;84.30
40374;DHT22;26079;45.958;12.492;2022-09-09T15:24:09;24.60;82.90
40374;DHT22;26079;45.958;12.492;2022-09-09T15:26:47;24.70;81.80
40374;DHT22;26079;45.958;12.492;2022-09-09T15:29:33;24.80;80.70
40374;DHT22;26079;45.958;12.492;2022-09-09T15:32:02;24.80;80.50
40374;DHT22;26079;45.958;12.492;2022-09-09T15:34:30;25.00;80.20
40374;DHT22;26079;45.958;12.492;2022-09-09T15:37:06;25.00;80.20
40374;DHT22;26079;45.958;12.492;2022-09-09T15:39:55;25.10;81.00
40374;DHT22;26079;45.958;12.492;2022-09-09T15:42:24;25.10;80.90
40374;DHT22;26079;45.958;12.492;2022-09-09T15:45:03;25.20;79.50
40374;DHT22;26079;45.958;12.492;2022-09-09T15:47:31;25.20;80.70
40374;DHT22;26079;45.958;12.492;2022-09-09T15:49:58;25.10;81.10
40374;DHT22;26079;45.958;12.492;2022-09-09T15:52:27;24.90;80.70
40374;DHT22;26079;45.958;12.492;2022-09-09T15:54:55;24.70;81.10
40374;DHT22;26079;45.958;12.492;2022-09-09T15:57:29;24.50;82.80
40374;DHT22;26079;45.958;12.492;2022-09-09T15:59:55;24.20;83.20
40374;DHT22;26079;45.958;12.492;2022-09-09T16:02:20;23.90;85.00
40374;DHT22;26079;45.958;12.492;2022-09-09T16:04:50;23.80;86.30
40374;DHT22;26079;45.958;12.492;2022-09-09T16:07:15;23.70;86.00
40374;DHT22;26079;45.958;12.492;2022-09-09T16:09:41;23.60;85.90
40374;DHT22;26079;45.958;12.492;2022-09-09T16:12:09;23.60;85.00
40374;DHT22;26079;45.958;12.492;2022-09-09T16:14:38;23.60;85.10
40374;DHT22;26079;45.958;12.492;2022-09-09T16:17:05;23.60;84.30
40374;DHT22;26079;45.958;12.492;2022-09-09T16:19:31;23.60;83.80
40374;DHT22;26079;45.958;12.492;2022-09-09T16:21:57;23.60;83.80
40374;DHT22;26079;45.958;12.492;2022-09-09T16:24:23;23.50;83.10
40374;DHT22;26079;45.958;12.492;2022-09-09T16:26:52;23.40;84.00
40374;DHT22;26079;45.958;12.492;2022-09-09T16:29:20;23.40;84.80
40374;DHT22;26079;45.958;12.492;2022-09-09T16:31:47;23.40;84.60
40374;DHT22;26079;45.958;12.492;2022-09-09T16:34:17;23.40;85.20
40374;DHT22;26079;45.958;12.492;2022-09-09T16:36:43;23.40;84.90
40374;DHT22;26079;45.958;12.492;2022-09-09T16:39:19;23.30;84.20
40374;DHT22;26079;45.958;12.492;2022-09-09T16:41:46;23.30;84.20
40374;DHT22;26079;45.958;12.492;2022-09-09T16:44:19;23.30;83.30
40374;DHT22;26079;45.958;12.492;2022-09-09T16:46:50;23.30;83.90
40374;DHT22;26079;45.958;12.492;2022-09-09T16:49:17;23.20;84.50
40374;DHT22;26079;45.958;12.492;2022-09-09T16:51:48;23.10;84.60
40374;DHT22;26079;45.958;12.492;2022-09-09T16:54:17;23.00;85.80
40374;DHT22;26079;45.958;12.492;2022-09-09T16:56:47;22.90;86.50
40374;DHT22;26079;45.958;12.492;2022-09-09T16:59:18;22.70;86.20
40374;DHT22;26079;45.958;12.492;2022-09-09T17:01:46;22.50;87.10
40374;DHT22;26079;45.958;12.492;2022-09-09T17:04:26;22.40;87.50
40374;DHT22;26079;45.958;12.492;2022-09-09T17:06:56;22.30;87.20
40374;DHT22;26079;45.958;12.492;2022-09-09T17:09:23;22.30;86.10
40374;DHT22;26079;45.958;12.492;2022-09-09T17:11:53;22.20;86.40
40374;DHT22;26079;45.958;12.492;2022-09-09T17:14:32;22.10;86.80
40374;DHT22;26079;45.958;12.492;2022-09-09T17:16:58;22.00;86.90
40374;DHT22;26079;45.958;12.492;2022-09-09T17:19:23;21.90;87.20
40374;DHT22;26079;45.958;12.492;2022-09-09T17:21:49;21.90;87.20
40374;DHT22;26079;45.958;12.492;2022-09-09T17:24:18;21.80;87.60
40374;DHT22;26079;45.958;12.492;2022-09-09T17:26:49;21.80;87.70
40374;DHT22;26079;45.958;12.492;2022-09-09T17:29:15;21.70;88.00
40374;DHT22;26079;45.958;12.492;2022-09-09T17:31:42;21.70;88.50
40374;DHT22;26079;45.958;12.492;2022-09-09T17:34:11;21.60;89.30
40374;DHT22;26079;45.958;12.492;2022-09-09T17:36:39;21.50;89.70
40374;DHT22;26079;45.958;12.492;2022-09-09T17:39:06;21.50;90.40
40374;DHT22;26079;45.958;12.492;2022-09-09T17:41:34;21.50;90.90
40374;DHT22;26079;45.958;12.492;2022-09-09T17:44:04;21.40;91.30
40374;DHT22;26079;45.958;12.492;2022-09-09T17:46:38;21.40;91.50
40374;DHT22;26079;45.958;12.492;2022-09-09T17:49:09;21.40;92.10
40374;DHT22;26079;45.958;12.492;2022-09-09T17:51:42;21.40;92.50
40374;DHT22;26079;45.958;12.492;2022-09-09T17:54:19;21.30;93.00
40374;DHT22;26079;45.958;12.492;2022-09-09T17:57:16;21.20;93.70
40374;DHT22;26079;45.958;12.492;2022-09-09T17:59:53;21.00;94.10
40374;DHT22;26079;45.958;12.492;2022-09-09T18:02:22;20.90;95.00
40374;DHT22;26079;45.958;12.492;2022-09-09T18:04:47;20.80;95.30
40374;DHT22;26079;45.958;12.492;2022-09-09T18:07:13;20.80;95.70